sensor_id;sensor_type;location;lat;lon;timestamp;temperature;humidity
1896;DHT22;1455;51.440;7.308;2022-07-29T01:42:10;20.30;95.60
1896;DHT22;1455;51.440;7.308;2022-07-29T01:45:04;20.30;95.80
1896;DHT22;1455;51.440;7.308;2022-07-29T01:48:10;20.30;95.90
1896;DHT22;1455;51.440;7.308;2022-07-29T01:51:18;20.20;96.00
1896;DHT22;1455;51.440;7.308;2022-07-29T01:54:35;20.20;96.00
1896;DHT22;1455;51.440;7.308;2022-07-29T01:58:05;20.20;96.00
1896;DHT22;1455;51.440;7.308;2022-07-29T02:01:16;20.20;96.20
1896;DHT22;1455;51.440;7.308;2022-07-29T02:04:41;20.20;96.40
1896;DHT22;1455;51.440;7.308;2022-07-29T02:33:08;20.10;97.20
1896;DHT22;1455;51.440;7.308;2022-07-29T02:36:41;20.10;97.30
1896;DHT22;1455;51.440;7.308;2022-07-29T02:39:43;20.00;97.40
1896;DHT22;1455;51.440;7.308;2022-07-29T02:42:29;20.00;97.50
1896;DHT22;1455;51.440;7.308;2022-07-29T02:45:16;19.90;97.60
1896;DHT22;1455;51.440;7.308;2022-07-29T02:48:06;19.90;97.70
1896;DHT22;1455;51.440;7.308;2022-07-29T02:51:06;19.80;97.80
1896;DHT22;1455;51.440;7.308;2022-07-29T02:53:54;19.80;98.00
1896;DHT22;1455;51.440;7.308;2022-07-29T02:56:44;19.80;98.10
1896;DHT22;1455;51.440;7.308;2022-07-29T02:59:31;19.80;98.20
1896;DHT22;1455;51.440;7.308;2022-07-29T03:02:18;19.80;98.30
1896;DHT22;1455;51.440;7.308;2022-07-29T03:05:04;19.80;98.50
1896;DHT22;1455;51.440;7.308;2022-07-29T03:07:54;19.80;98.50
1896;DHT22;1455;51.440;7.308;2022-07-29T03:10:43;19.90;98.50
1896;DHT22;1455;51.440;7.308;2022-07-29T03:13:32;19.90;98.70
1896;DHT22;1455;51.440;7.308;2022-07-29T03:16:18;19.90;98.80
1896;DHT22;1455;51.440;7.308;2022-07-29T03:19:05;19.90;99.20
1896;DHT22;1455;51.440;7.308;2022-07-29T03:21:50;19.80;98.90
1896;DHT22;1455;51.440;7.308;2022-07-29T03:24:38;19.80;99.10
1896;DHT22;1455;51.440;7.308;2022-07-29T03:27:43;19.80;99.10
1896;DHT22;1455;51.440;7.308;2022-07-29T03:30:30;19.80;99.30
1896;DHT22;1455;51.440;7.308;2022-07-29T03:33:16;19.80;99.40
1896;DHT22;1455;51.440;7.308;2022-07-29T03:36:13;19.80;99.70
1896;DHT22;1455;51.440;7.308;2022-07-29T03:39:11;19.80;99.40
1896;DHT22;1455;51.440;7.308;2022-07-29T03:42:00;19.80;99.60
1896;DHT22;1455;51.440;7.308;2022-07-29T03:44:47;19.70;99.70
1896;DHT22;1455;51.440;7.308;2022-07-29T03:47:39;19.70;99.80
1896;DHT22;1455;51.440;7.308;2022-07-29T03:50:34;19.70;99.90
1896;DHT22;1455;51.440;7.308;2022-07-29T03:53:36;19.80;99.90
1896;DHT22;1455;51.440;7.308;2022-07-29T03:56:34;19.80;99.90
1896;DHT22;1455;51.440;7.308;2022-07-29T03:59:37;19.70;99.90
1896;DHT22;1455;51.440;7.308;2022-07-29T04:03:32;19.70;99.90
1896;DHT22;1455;51.440;7.308;2022-07-29T04:06:02;19.50;99.90
1896;DHT22;1455;51.440;7.308;2022-07-29T04:08:49;19.40;99.90
1896;DHT22;1455;51.440;7.308;2022-07-29T04:15:27;19.30;99.90
1896;DHT22;1455;51.440;7.308;2022-07-29T04:32:48;19.40;99.90
1896;DHT22;1455;51.440;7.308;2022-07-29T04:35:45;19.40;99.90
1896;DHT22;1455;51.440;7.308;2022-07-29T04:38:37;19.40;99.90
1896;DHT22;1455;51.440;7.308;2022-07-29T04:41:46;19.30;99.90
1896;DHT22;1455;51.440;7.308;2022-07-29T04:44:34;19.30;99.90
1896;DHT22;1455;51.440;7.308;2022-07-29T04:47:39;19.30;99.90
1896;DHT22;1455;51.440;7.308;2022-07-29T04:50:39;19.30;99.90
1896;DHT22;1455;51.440;7.308;2022-07-29T04:53:48;19.30;99.90
1896;DHT22;1455;51.440;7.308;2022-07-29T04:56:42;19.20;99.90
1896;DHT22;1455;51.440;7.308;2022-07-29T04:59:36;19.20;99.90
1896;DHT22;1455;51.440;7.308;2022-07-29T05:02:22;19.10;99.90
